Time,TemperatureF,DewpointF,PressureIn,WindDirection,WindDirectionDegrees,WindSpeedMPH,WindSpeedGustMPH,Humidity,HourlyPrecipIn,Conditions,Clouds,dailyrainin,SoftwareType,DateUTC
2013-03-31 00:00:00,75.3,71.2,29.82,SE,135,1.9,7.5,87,0.00,,SCT040,0.00,VWS V13.01,2013-03-30 14:00:00,
2013-03-31 00:15:00,74.8,70.7,29.82,SSE,158,1.9,10.0,87,0.00,,SCT040,0.00,VWS V13.01,2013-03-30 14:15:00,
2013-03-31 00:30:00,74.5,71.4,29.81,SE,135,1.9,10.0,90,0.00,,SCT040,0.00,VWS V13.01,2013-03-30 14:30:00,
2013-03-31 00:45:00,74.0,70.9,29.81,SE,135,1.9,8.7,90,0.00,,SCT040,0.00,VWS V13.01,2013-03-30 14:45:00,
2013-03-31 01:00:00,74.1,70.7,29.81,SE,135,0.6,1.3,89,0.00,,SCT040,0.00,VWS V13.01,2013-03-30 15:00:00,
2013-03-31 01:15:00,74.3,70.5,29.80,SE,135,0.6,1.3,88,0.00,,SCT040,0.00,VWS V13.01,2013-03-30 15:15:00,
2013-03-31 01:30:00,74.6,70.8,29.80,SE,135,0.6,1.3,88,0.00,,SCT040,0.00,VWS V13.01,2013-03-30 15:30:00,
2013-03-31 01:45:00,74.5,71.1,29.80,SE,135,0.6,3.8,89,0.00,,SCT040,0.00,VWS V13.01,2013-03-30 15:45:00,
2013-03-31 02:00:00,74.2,70.8,29.80,ESE,112,0.6,3.8,89,0.00,,SCT040,0.00,VWS V13.01,2013-03-30 16:00:00,
2013-03-31 02:15:00,74.0,70.2,29.80,SE,135,0.6,5.0,88,0.00,,SCT040,0.00,VWS V13.01,2013-03-30 16:15:00,
2013-03-31 02:30:00,73.9,70.5,29.79,SE,135,0.6,1.3,89,0.00,,SCT040,0.00,VWS V13.01,2013-03-30 16:30:00,
2013-03-31 02:45:00,73.6,70.2,29.79,SE,135,0.6,3.8,89,0.00,,SCT040,0.00,VWS V13.01,2013-03-30 16:45:00,
2013-03-31 03:00:00,73.7,70.3,29.79,SE,135,0.6,5.0,89,0.00,,SCT040,0.00,VWS V13.01,2013-03-30 17:00:00,
2013-03-31 03:15:00,73.6,70.5,29.79,SE,135,0.6,3.8,90,0.00,,SCT040,0.00,VWS V13.01,2013-03-30 17:15:00,
2013-03-31 03:30:00,73.4,70.3,29.79,SE,135,0.6,1.3,90,0.00,,SCT040,0.00,VWS V13.01,2013-03-30 17:30:00,
2013-03-31 03:45:00,73.2,70.1,29.78,SE,135,0.6,1.3,90,0.00,,SCT040,0.00,VWS V13.01,2013-03-30 17:45:00,
2013-03-31 04:00:00,73.2,70.1,29.78,SE,135,0.6,5.0,90,0.00,,SCT040,0.00,VWS V13.01,2013-03-30 18:00:00,
2013-03-31 04:15:00,73.1,70.0,29.79,SE,135,0.6,1.3,90,0.00,,SCT040,0.00,VWS V13.01,2013-03-30 18:15:00,
2013-03-31 04:30:00,73.0,69.9,29.79,SE,135,0.6,1.3,90,0.00,,SCT040,0.00,VWS V13.01,2013-03-30 18:30:00,
2013-03-31 04:45:00,72.9,69.8,29.79,SE,135,0.6,5.0,90,0.00,,SCT040,0.00,VWS V13.01,2013-03-30 18:45:00,
2013-03-31 05:00:00,72.9,69.8,29.79,SE,135,0.6,5.0,90,0.00,,SCT040,0.00,VWS V13.01,2013-03-30 19:00:00,
2013-03-31 05:15:00,72.7,69.9,29.79,SE,135,0.6,1.3,91,0.00,,SCT040,0.00,VWS V13.01,2013-03-30 19:15:00,
2013-03-31 05:30:00,72.4,69.9,29.80,SE,135,0.6,2.5,92,0.00,,SCT040,0.00,VWS V13.01,2013-03-30 19:30:00,
2013-03-31 06:00:00,72.1,69.7,29.80,SE,135,0.6,1.3,92,0.00,,SCT040,0.00,VWS V13.01,2013-03-30 20:00:00,
2013-03-31 06:15:00,72.2,69.4,29.80,SE,135,0.6,3.8,91,0.00,,SCT040,0.00,VWS V13.01,2013-03-30 20:15:00,
2013-03-31 06:30:00,72.6,69.8,29.80,SE,135,0.6,2.5,91,0.00,,SCT040,0.00,VWS V13.01,2013-03-30 20:30:00,
2013-03-31 06:45:00,72.7,69.6,29.80,SE,135,0.6,5.0,90,0.00,,SCT040,0.00,VWS V13.01,2013-03-30 20:45:00,
2013-03-31 07:00:00,73.3,69.9,29.81,SE,135,0.6,5.0,89,0.00,,SCT040,0.00,VWS V13.01,2013-03-30 21:00:00,
2013-03-31 07:15:00,74.8,69.7,29.81,SE,135,0.6,3.8,84,0.00,,SCT040,0.00,VWS V13.01,2013-03-30 21:15:00,
2013-03-31 07:30:00,75.9,70.0,29.81,SE,135,1.9,6.2,82,0.00,,SCT040,0.00,VWS V13.01,2013-03-30 21:30:00,
2013-03-31 07:45:00,76.9,70.3,29.82,SE,135,3.1,8.7,80,0.00,,SCT040,0.00,VWS V13.01,2013-03-30 21:45:00,
2013-03-31 08:00:00,78.0,70.6,29.82,ESE,112,1.9,8.7,78,0.00,,SCT040,0.00,VWS V13.01,2013-03-30 22:00:00,
2013-03-31 08:10:00,79.8,71.6,29.82,SSE,151,1.0,1.0,76,0.00,,,0.00,Wunderground v.1.15,2013-03-30 22:10:00,
2013-03-31 08:16:00,79.4,70.8,29.82,SE,135,1.9,5.0,75,0.00,,SCT040,0.00,VWS V13.01,2013-03-30 22:16:00,
2013-03-31 08:21:00,80.5,71.1,29.82,SE,131,0.6,5.0,73,0.00,,SCT040,0.00,VWS V13.01,2013-03-30 22:21:00,
2013-03-31 08:26:00,80.5,71.1,29.82,SSE,153,3.1,5.0,73,0.00,,SCT040,0.00,VWS V13.01,2013-03-30 22:26:00,
2013-03-31 08:31:00,80.7,70.8,29.83,South,186,0.6,5.0,72,0.00,,FEW025,0.00,VWS V13.01,2013-03-30 22:31:00,
2013-03-31 08:36:00,80.9,70.6,29.83,SSE,159,0.6,5.0,71,0.00,,FEW025,0.00,VWS V13.01,2013-03-30 22:36:00,
2013-03-31 08:41:00,81.4,70.3,29.83,SSW,194,4.4,5.0,69,0.00,,FEW025,0.00,VWS V13.01,2013-03-30 22:41:00,
2013-03-31 08:46:00,81.6,70.9,29.84,SSW,192,1.9,5.0,70,0.00,,FEW030,0.00,VWS V13.01,2013-03-30 22:46:00,
2013-03-31 08:51:00,82.0,71.3,29.84,SSE,165,0.6,5.0,70,0.00,,FEW030,0.00,VWS V13.01,2013-03-30 22:51:00,
2013-03-31 08:56:00,82.4,71.2,29.84,SE,138,0.6,5.0,69,0.00,,FEW030,0.00,VWS V13.01,2013-03-30 22:56:00,
2013-03-31 09:01:00,82.4,70.8,29.84,SSW,194,0.6,5.0,68,0.00,,FEW030,0.00,VWS V13.01,2013-03-30 23:01:00,
2013-03-31 09:06:00,82.4,70.8,29.84,South,188,0.6,5.0,68,0.00,,FEW030,0.00,VWS V13.01,2013-03-30 23:06:00,
2013-03-31 09:11:00,83.0,71.4,29.84,South,173,3.1,5.0,68,0.00,,FEW030,0.00,VWS V13.01,2013-03-30 23:11:00,
2013-03-31 09:16:00,83.6,71.9,29.85,ESE,108,0.6,5.0,68,0.00,,FEW030,0.00,VWS V13.01,2013-03-30 23:16:00,
2013-03-31 09:21:00,84.1,71.5,29.85,SSE,163,0.6,5.0,66,0.00,,FEW030,0.00,VWS V13.01,2013-03-30 23:21:00,
2013-03-31 09:26:00,84.5,72.3,29.85,SSW,195,3.1,5.0,67,0.00,,FEW030,0.00,VWS V13.01,2013-03-30 23:26:00,
2013-03-31 09:30:00,84.1,71.1,29.84,South,180,1.9,6.2,65,0.00,,FEW030,0.00,VWS V13.01,2013-03-30 23:30:00,
2013-03-31 09:45:00,84.4,71.8,29.84,SE,135,1.9,10.0,66,0.00,,FEW030,0.00,VWS V13.01,2013-03-30 23:45:00,
2013-03-31 10:00:00,85.1,72.0,29.84,SE,135,1.9,8.7,65,0.00,,FEW030,0.00,VWS V13.01,2013-03-31 00:00:00,
2013-03-31 10:07:00,84.7,71.6,29.84,SE,124,0.6,5.0,65,0.00,,FEW030,0.00,VWS V13.01,2013-03-31 00:07:00,
2013-03-31 10:15:00,85.0,71.9,29.84,ENE,68,3.1,12.5,65,0.00,,FEW030,0.00,VWS V13.01,2013-03-31 00:15:00,
2013-03-31 10:30:00,84.7,71.2,29.84,ENE,68,3.1,12.5,64,0.00,,FEW030,0.00,VWS V13.01,2013-03-31 00:30:00,
2013-03-31 10:45:00,84.1,71.5,29.84,ENE,68,4.4,12.5,66,0.00,,FEW030,0.00,VWS V13.01,2013-03-31 00:45:00,
2013-03-31 11:00:00,84.3,71.3,29.83,ENE,68,4.4,13.7,65,0.00,,FEW030,0.00,VWS V13.01,2013-03-31 01:00:00,
2013-03-31 11:15:00,84.6,71.6,29.83,ENE,68,4.4,11.3,65,0.00,,FEW030,0.00,VWS V13.01,2013-03-31 01:15:00,
2013-03-31 11:30:00,84.9,71.4,29.82,ENE,68,3.1,11.3,64,0.00,,FEW030,0.00,VWS V13.01,2013-03-31 01:30:00,
2013-03-31 11:45:00,85.2,71.2,29.81,ENE,68,3.1,12.5,63,0.00,,FEW030,0.00,VWS V13.01,2013-03-31 01:45:00,
2013-03-31 12:00:00,84.9,71.4,29.80,ENE,68,4.4,10.0,64,0.00,,FEW030,0.00,VWS V13.01,2013-03-31 02:00:00,
2013-03-31 12:15:00,84.5,70.5,29.80,ENE,68,5.6,12.5,63,0.00,,FEW030,0.00,VWS V13.01,2013-03-31 02:15:00,
2013-03-31 12:30:00,84.5,71.0,29.79,ENE,68,4.4,11.3,64,0.00,,FEW030,0.00,VWS V13.01,2013-03-31 02:30:00,
2013-03-31 12:45:00,84.5,70.5,29.78,East,90,5.6,16.3,63,0.00,,FEW030,0.00,VWS V13.01,2013-03-31 02:45:00,
2013-03-31 13:00:00,84.5,70.1,29.78,ENE,68,5.6,15.0,62,0.00,,FEW030,0.00,VWS V13.01,2013-03-31 03:00:00,
2013-03-31 13:15:00,84.4,70.9,29.78,East,90,5.6,16.3,64,0.00,,FEW030,0.00,VWS V13.01,2013-03-31 03:15:00,
2013-03-31 13:30:00,84.4,70.9,29.77,ENE,68,5.6,13.7,64,0.00,,FEW030,0.00,VWS V13.01,2013-03-31 03:30:00,
2013-03-31 13:45:00,84.3,71.3,29.76,ENE,68,5.6,12.5,65,0.00,,FEW030,0.00,VWS V13.01,2013-03-31 03:45:00,
2013-03-31 14:00:00,84.0,71.0,29.76,East,90,4.4,12.5,65,0.00,,FEW030,0.00,VWS V13.01,2013-03-31 04:00:00,
2013-03-31 14:15:00,84.2,70.7,29.76,East,90,4.4,12.5,64,0.00,,FEW030,0.00,VWS V13.01,2013-03-31 04:15:00,
2013-03-31 14:30:00,84.4,70.9,29.76,ENE,68,5.6,13.7,64,0.00,,FEW030,0.00,VWS V13.01,2013-03-31 04:30:00,
2013-03-31 14:45:00,84.4,70.9,29.76,ENE,68,4.4,13.7,64,0.00,,FEW030,0.00,VWS V13.01,2013-03-31 04:45:00,
2013-03-31 15:00:00,84.6,70.6,29.75,ENE,68,3.1,11.3,63,0.00,,FEW030,0.00,VWS V13.01,2013-03-31 05:00:00,
2013-03-31 15:15:00,84.3,70.8,29.75,ENE,68,4.4,13.7,64,0.00,,FEW030,0.00,VWS V13.01,2013-03-31 05:15:00,
2013-03-31 15:30:00,84.1,71.1,29.75,East,90,4.4,13.7,65,0.00,,FEW030,0.00,VWS V13.01,2013-03-31 05:30:00,
2013-03-31 15:45:00,84.0,71.0,29.75,ENE,68,4.4,11.3,65,0.00,,FEW030,0.00,VWS V13.01,2013-03-31 05:45:00,
2013-03-31 16:00:00,83.6,71.1,29.75,ENE,68,4.4,12.5,66,0.00,,FEW030,0.00,VWS V13.01,2013-03-31 06:00:00,
2013-03-31 16:15:00,83.5,70.9,29.75,ENE,68,4.4,12.5,66,0.00,,FEW030,0.00,VWS V13.01,2013-03-31 06:15:00,
2013-03-31 16:30:00,83.3,71.2,29.76,ENE,68,3.1,12.5,67,0.00,,FEW030,0.00,VWS V13.01,2013-03-31 06:30:00,
2013-03-31 16:45:00,83.0,71.8,29.76,ENE,68,4.4,13.7,69,0.00,,FEW030,0.00,VWS V13.01,2013-03-31 06:45:00,
2013-03-31 17:00:00,82.7,71.5,29.77,East,90,1.9,8.7,69,0.00,,FEW030,0.00,VWS V13.01,2013-03-31 07:00:00,
2013-03-31 17:15:00,82.0,70.8,29.78,East,90,1.9,12.5,69,0.00,,FEW030,0.00,VWS V13.01,2013-03-31 07:15:00,
2013-03-31 17:30:00,81.9,69.9,29.78,ENE,68,1.9,12.5,67,0.00,,FEW030,0.00,VWS V13.01,2013-03-31 07:30:00,
2013-03-31 17:45:00,81.7,70.1,29.78,ENE,68,0.6,7.5,68,0.00,,FEW030,0.00,VWS V13.01,2013-03-31 07:45:00,
2013-03-31 18:00:00,81.5,70.4,29.79,East,90,0.6,8.7,69,0.00,,FEW030,0.00,VWS V13.01,2013-03-31 08:00:00,
2013-03-31 18:15:00,80.8,69.7,29.79,SE,135,0.6,7.5,69,0.00,,FEW030,0.00,VWS V13.01,2013-03-31 08:15:00,
2013-03-31 18:30:00,80.3,70.5,29.80,SE,135,0.6,5.0,72,0.00,,FEW030,0.00,VWS V13.01,2013-03-31 08:30:00,
2013-03-31 18:45:00,79.3,72.2,29.81,SSW,202,0.6,1.3,79,0.00,,FEW030,0.00,VWS V13.01,2013-03-31 08:45:00,
2013-03-31 19:00:00,77.3,71.4,29.81,SSW,202,0.6,3.8,82,0.00,,FEW030,0.00,VWS V13.01,2013-03-31 09:00:00,
2013-03-31 19:15:00,76.4,70.9,29.82,SW,225,0.6,1.3,83,0.00,,FEW030,0.00,VWS V13.01,2013-03-31 09:15:00,
2013-03-31 19:30:00,75.9,70.7,29.82,SW,225,0.6,1.3,84,0.00,,FEW030,0.00,VWS V13.01,2013-03-31 09:30:00,
2013-03-31 19:45:00,75.6,70.4,29.83,SW,225,0.6,3.8,84,0.00,,FEW030,0.00,VWS V13.01,2013-03-31 09:45:00,
2013-03-31 20:00:00,75.4,70.6,29.83,SW,225,0.6,3.8,85,0.00,,FEW030,0.00,VWS V13.01,2013-03-31 10:00:00,
2013-03-31 20:15:00,75.0,70.2,29.84,SW,225,0.6,1.3,85,0.00,,FEW030,0.00,VWS V13.01,2013-03-31 10:15:00,
2013-03-31 20:30:00,74.7,70.2,29.84,SW,225,0.6,1.3,86,0.00,,FEW030,0.00,VWS V13.01,2013-03-31 10:30:00,
2013-03-31 20:45:00,74.6,69.8,29.84,SW,225,0.6,2.5,85,0.00,,FEW030,0.00,VWS V13.01,2013-03-31 10:45:00,
2013-03-31 21:00:00,74.6,70.1,29.85,SW,225,0.6,1.3,86,0.00,,FEW030,0.00,VWS V13.01,2013-03-31 11:00:00,
2013-03-31 21:15:00,74.2,70.1,29.85,SW,225,0.6,1.3,87,0.00,,FEW030,0.00,VWS V13.01,2013-03-31 11:15:00,
2013-03-31 21:30:00,74.0,69.9,29.85,SW,225,0.6,1.3,87,0.00,,FEW030,0.00,VWS V13.01,2013-03-31 11:30:00,
2013-03-31 21:45:00,74.0,69.9,29.84,SW,225,0.6,1.3,87,0.00,,FEW030,0.00,VWS V13.01,2013-03-31 11:45:00,
2013-03-31 22:00:00,73.8,70.0,29.85,SW,225,0.6,0.0,88,0.00,,FEW030,0.00,VWS V13.01,2013-03-31 12:00:00,
2013-03-31 22:15:00,73.4,70.0,29.85,SW,225,0.6,1.3,89,0.00,,FEW030,0.00,VWS V13.01,2013-03-31 12:15:00,
2013-03-31 22:30:00,73.2,69.8,29.85,SW,225,0.6,1.3,89,0.00,,FEW030,0.00,VWS V13.01,2013-03-31 12:30:00,
2013-03-31 22:45:00,73.3,70.2,29.85,SW,225,0.6,1.3,90,0.00,,FEW030,0.00,VWS V13.01,2013-03-31 12:45:00,
2013-03-31 23:00:00,73.1,70.0,29.85,SW,225,0.6,1.3,90,0.00,,FEW030,0.00,VWS V13.01,2013-03-31 13:00:00,
2013-03-31 23:15:00,73.0,69.9,29.85,SW,225,0.6,1.3,90,0.00,,FEW030,0.00,VWS V13.01,2013-03-31 13:15:00,
2013-03-31 23:30:00,72.9,69.8,29.85,SW,225,0.6,1.3,90,0.00,,FEW030,0.00,VWS V13.01,2013-03-31 13:30:00,
2013-03-31 23:45:00,72.8,69.7,29.84,SW,225,0.6,1.3,90,0.00,,FEW030,0.00,VWS V13.01,2013-03-31 13:45:00,